NCAR-RAP Real-Time Weather Data

Output produced by METARs form (08 May 2021  01:55 UTC)
found at http://weather.rap.ucar.edu/surface/
 
KMKG 080055Z 33010KT 10SM SCT030 07/M01 A3002 RMK AO2 SLP168 T00671011
KMKG 072355Z 32011KT 10SM SCT032 09/M01 A3000 RMK AO2 SLP163 T00891006 10111 20089 53010
KMKG 072255Z 34017KT 10SM SCT032 09/01 A2999 RMK AO2 SLP159 T00940006
KMKG 072155Z 29012G21KT 10SM SCT026 SCT032 09/02 A2998 RMK AO2 SLP156 T00940017
KMKG 072055Z 29013G19KT 10SM SCT025 SCT030 BKN038 10/02 A2997 RMK AO2 PK WND 29027/1956 CIG 024 RWY 14 SLP154 T01000022 53001
KMKG 071955Z 29014G27KT 10SM FEW024 BKN041 10/03 A2997 RMK AO2 PK WND 30029/1923 SLP153 T01000028
KMKG 071855Z 29019G26KT 10SM FEW017 BKN038 BKN250 10/02 A2997 RMK AO2 PK WND 32027/1843 SLP152 T01000017
KMKG 071755Z 31014G27KT 10SM FEW017 BKN038 BKN250 11/01 A2997 RMK AO2 PK WND 30027/1745 SLP152 60000 T01060011 10111 20044 51009
KMKG 071655Z 29012G20KT 10SM FEW015 SCT038 09/04 A2997 RMK AO2 SLP152 T00940039
KMKG 071555Z 31008G16KT 10SM FEW022 BKN036 11/03 A2995 RMK AO2 SLP145 T01060033
KMKG 071455Z 31009G17KT 10SM BKN038 OVC055 09/03 A2994 RMK AO2 SLP144 60000 T00890033 58001
KMKG 071355Z 28004KT 10SM BKN048 OVC060 09/03 A2994 RMK AO2 RAE40 SLP143 P0000 T00890033
KMKG 071255Z 27007KT 10SM -RA BKN050 OVC065 08/03 A2995 RMK AO2 RAB55 SLP145 P0000 T00780028
KMKG 071155Z 13004KT 9SM BKN075 OVC095 04/03 A2995 RMK AO2 SLP145 70015 I6001 T00440028 10044 20006 55008
KMKG 071055Z 12005KT 7SM SCT120 BKN250 02/00 A2994 RMK AO2 SLP144 I1001 T00170000